Time;durP1;ratioP1;P1;durP2;ratioP2;P2;SDS_P1;SDS_P2;PMS_P1;PMS_P2;Temp;Humidity;BMP_temperature;BMP_pressure;BME280_temperature;BME280_humidity;BME280_pressure;Samples;Min_cycle;Max_cycle;Signal;HPM_P1;HPM_P2
2022/04/15 00:02:17;;;;;;;3.15;1.60;;;7.50;99.90;;;;;;5079022;28;20044;-77
2022/04/15 00:04:43;;;;;;;2.05;1.20;;;7.40;99.90;;;;;;5077560;28;20032;-76
2022/04/15 00:07:10;;;;;;;2.95;1.77;;;7.30;99.90;;;;;;5109528;27;20044;-77
2022/04/15 00:09:36;;;;;;;2.72;1.42;;;7.30;99.90;;;;;;5110514;27;20421;-77
2022/04/15 00:12:07;;;;;;;3.47;1.73;;;7.30;99.90;;;;;;5059960;28;20036;-77
2022/04/15 00:14:34;;;;;;;3.80;2.05;;;7.30;99.90;;;;;;5080812;28;20502;-77
2022/04/15 00:17:00;;;;;;;3.72;1.30;;;7.20;99.90;;;;;;5076575;28;20071;-77
2022/04/15 00:19:26;;;;;;;2.38;0.82;;;7.20;99.90;;;;;;5079214;28;20090;-76
2022/04/15 00:21:52;;;;;;;3.22;1.63;;;7.20;99.90;;;;;;5060229;28;20040;-77
2022/04/15 00:24:17;;;;;;;2.33;1.20;;;7.20;99.90;;;;;;5058970;28;20075;-77
2022/04/15 00:26:43;;;;;;;2.65;1.67;;;7.20;99.90;;;;;;5106431;27;20052;-76
2022/04/15 00:29:08;;;;;;;2.80;1.38;;;7.20;99.90;;;;;;5077821;28;20495;-77
2022/04/15 00:31:34;;;;;;;2.15;1.20;;;7.10;99.90;;;;;;5075979;28;20067;-77
2022/04/15 00:34:01;;;;;;;1.40;0.90;;;7.10;99.90;;;;;;5079687;28;20044;-77
2022/04/15 00:36:27;;;;;;;3.22;1.45;;;7.10;99.90;;;;;;5062977;28;20043;-76
2022/04/15 00:38:53;;;;;;;3.00;1.67;;;7.10;99.90;;;;;;5080133;28;20039;-76
2022/04/15 00:41:18;;;;;;;2.05;1.30;;;7.10;99.90;;;;;;5078279;28;20032;-77
2022/04/15 00:43:44;;;;;;;2.90;1.50;;;7.10;99.90;;;;;;5081292;28;20040;-77
2022/04/15 00:46:10;;;;;;;3.00;1.73;;;7.10;99.90;;;;;;5075940;28;20048;-77
2022/04/15 00:48:36;;;;;;;3.67;1.88;;;7.20;99.90;;;;;;5110858;27;20040;-77
2022/04/15 00:51:03;;;;;;;3.33;1.80;;;7.20;99.90;;;;;;5063274;28;20089;-77
2022/04/15 00:53:30;;;;;;;4.75;2.00;;;7.20;99.90;;;;;;5077715;28;20037;-76
2022/04/15 00:55:59;;;;;;;2.22;1.55;;;7.30;99.90;;;;;;5062116;28;20050;-77
2022/04/15 00:58:25;;;;;;;2.50;1.60;;;7.30;99.90;;;;;;5077701;28;20043;-77
2022/04/15 01:00:54;;;;;;;1.98;1.30;;;7.30;99.90;;;;;;5072885;28;20056;-77
2022/04/15 01:03:22;;;;;;;2.70;1.60;;;7.30;99.90;;;;;;5108823;27;20059;-76
2022/04/15 01:05:49;;;;;;;3.58;1.38;;;7.30;99.90;;;;;;5112000;27;20059;-77
2022/04/15 01:08:19;;;;;;;3.60;1.85;;;7.20;99.90;;;;;;5076247;28;20059;-76
2022/04/15 01:10:46;;;;;;;2.95;1.25;;;7.20;99.90;;;;;;5076279;28;20046;-77
2022/04/15 01:13:14;;;;;;;4.18;2.10;;;7.20;99.90;;;;;;5077630;28;20048;-77
2022/04/15 01:15:40;;;;;;;3.53;1.83;;;7.30;99.90;;;;;;5108894;27;20090;-77
2022/04/15 01:18:06;;;;;;;6.53;2.60;;;7.30;99.90;;;;;;5111254;27;20043;-76
2022/04/15 01:20:32;;;;;;;3.05;1.63;;;7.30;99.90;;;;;;5077009;28;20248;-76
2022/04/15 01:23:11;;;;;;;6.55;1.73;;;7.30;99.90;;;;;;5076437;28;20510;-76
2022/04/15 01:25:37;;;;;;;3.17;1.70;;;7.30;99.90;;;;;;5057874;28;20054;-77
2022/04/15 01:28:04;;;;;;;3.40;1.88;;;7.40;99.90;;;;;;5077053;28;20040;-77
2022/04/15 01:30:29;;;;;;;2.80;1.80;;;7.40;99.90;;;;;;5058089;28;20032;-76
2022/04/15 01:32:55;;;;;;;3.65;2.10;;;7.40;99.90;;;;;;5073110;28;20039;-77
2022/04/15 01:35:21;;;;;;;2.90;1.35;;;7.50;99.90;;;;;;5075484;28;20049;-77
2022/04/15 01:37:48;;;;;;;3.70;2.40;;;7.50;99.90;;;;;;5076047;28;20032;-77
2022/04/15 01:40:15;;;;;;;6.38;2.42;;;7.50;99.90;;;;;;5077375;28;20032;-77
2022/04/15 01:42:44;;;;;;;3.10;1.92;;;7.50;99.90;;;;;;5057042;28;20048;-77
2022/04/15 01:45:11;;;;;;;2.97;1.75;;;7.50;99.90;;;;;;5105641;27;20565;-77
2022/04/15 01:47:37;;;;;;;4.80;2.13;;;7.60;99.90;;;;;;5075821;28;20077;-76
2022/04/15 01:50:04;;;;;;;3.13;1.77;;;7.60;99.90;;;;;;5072938;28;20170;-77
2022/04/15 01:52:30;;;;;;;4.43;2.00;;;7.60;99.90;;;;;;5075365;28;20032;-76
2022/04/15 01:54:55;;;;;;;5.10;2.05;;;7.60;99.90;;;;;;5076435;28;20086;-77
2022/04/15 01:57:21;;;;;;;3.15;1.63;;;7.70;99.90;;;;;;5109620;27;20417;-77
2022/04/15 01:59:47;;;;;;;8.07;1.92;;;7.70;99.90;;;;;;5075628;28;20040;-77
2022/04/15 02:02:12;;;;;;;3.42;1.70;;;7.70;99.90;;;;;;5074051;28;20035;-77
2022/04/15 02:04:38;;;;;;;3.33;1.60;;;7.70;99.90;;;;;;5076714;28;20501;-77
2022/04/15 02:07:04;;;;;;;4.28;2.00;;;7.70;99.90;;;;;;5075410;28;20040;-77
2022/04/15 02:09:30;;;;;;;5.70;1.98;;;7.70;99.90;;;;;;5093042;28;20040;-77
2022/04/15 02:11:56;;;;;;;3.50;2.00;;;7.80;99.90;;;;;;5077451;28;20184;-77
2022/04/15 02:14:22;;;;;;;3.83;2.03;;;7.80;99.90;;;;;;5074050;28;20123;-77
2022/04/15 02:16:48;;;;;;;4.63;1.95;;;7.80;99.90;;;;;;5073424;28;20036;-77
2022/04/15 02:19:14;;;;;;;3.63;1.80;;;7.80;99.90;;;;;;5055385;28;20428;-77
2022/04/15 02:21:40;;;;;;;3.20;2.00;;;7.80;99.90;;;;;;5055926;28;20746;-77
2022/04/15 02:24:06;;;;;;;4.43;2.08;;;7.80;99.90;;;;;;5056992;28;20127;-77
2022/04/15 02:26:32;;;;;;;4.03;1.83;;;7.90;99.90;;;;;;5108716;27;20039;-77
2022/04/15 02:28:58;;;;;;;4.70;1.88;;;7.90;99.90;;;;;;5071075;28;20048;-77
2022/04/15 02:31:24;;;;;;;4.07;1.95;;;7.90;99.90;;;;;;5075204;28;20878;-77
2022/04/15 02:33:50;;;;;;;3.17;1.65;;;7.90;99.90;;;;;;5110081;27;20039;-77
2022/04/15 02:36:16;;;;;;;3.88;1.95;;;7.90;99.90;;;;;;5077108;28;20113;-76
2022/04/15 02:38:42;;;;;;;3.47;1.75;;;7.90;99.90;;;;;;5076320;28;20036;-77
2022/04/15 02:41:08;;;;;;;6.13;2.00;;;7.90;99.90;;;;;;5075877;28;20478;-77
2022/04/15 02:43:37;;;;;;;2.67;1.67;;;7.90;99.90;;;;;;5070289;28;20040;-77
2022/04/15 02:46:05;;;;;;;3.45;1.95;;;7.90;99.90;;;;;;5077685;28;20063;-78
2022/04/15 02:48:30;;;;;;;2.63;1.55;;;7.90;99.90;;;;;;5061323;28;20036;-77
2022/04/15 02:50:56;;;;;;;4.03;2.28;;;7.90;99.90;;;;;;5077358;28;20123;-77
2022/04/15 02:53:23;;;;;;;7.15;2.33;;;7.90;99.90;;;;;;5074094;28;20563;-77
2022/04/15 02:55:49;;;;;;;2.53;1.63;;;7.90;99.90;;;;;;5104905;28;20101;-77
2022/04/15 02:58:15;;;;;;;3.47;1.83;;;8.00;99.90;;;;;;5089227;28;20094;-77
2022/04/15 03:00:40;;;;;;;3.33;1.60;;;8.00;99.90;;;;;;5076843;28;20036;-77
2022/04/15 03:03:06;;;;;;;5.55;1.75;;;8.00;99.90;;;;;;5108959;28;20043;-77
2022/04/15 03:05:32;;;;;;;2.75;1.58;;;8.00;99.90;;;;;;5077029;28;20040;-77
2022/04/15 03:07:57;;;;;;;3.08;1.80;;;8.00;99.90;;;;;;5076811;28;20111;-77
2022/04/15 03:10:23;;;;;;;5.22;2.13;;;8.10;99.90;;;;;;5069610;28;20052;-77
2022/04/15 03:12:49;;;;;;;3.47;2.22;;;8.10;99.90;;;;;;5057672;28;20420;-77
2022/04/15 03:15:15;;;;;;;3.20;1.90;;;8.10;99.90;;;;;;5074607;28;20031;-77
2022/04/15 03:17:41;;;;;;;9.02;2.03;;;8.10;99.90;;;;;;5074573;28;20120;-77
2022/04/15 03:20:08;;;;;;;4.70;1.90;;;8.10;99.90;;;;;;5059901;28;20793;-77
2022/04/15 03:22:38;;;;;;;4.70;1.90;;;8.10;99.90;;;;;;5074599;28;20161;-77
2022/04/15 03:25:05;;;;;;;5.72;1.90;;;8.10;99.90;;;;;;5082246;28;20033;-77
2022/04/15 03:27:31;;;;;;;8.07;1.92;;;8.10;99.90;;;;;;5056470;28;20024;-77
2022/04/15 03:29:56;;;;;;;2.80;1.73;;;8.10;99.90;;;;;;5076384;28;20163;-77
2022/04/15 03:32:22;;;;;;;3.50;1.90;;;8.10;99.90;;;;;;5107769;28;20029;-77
2022/04/15 03:34:48;;;;;;;4.43;1.38;;;8.10;99.90;;;;;;5092537;28;20093;-77
2022/04/15 03:37:13;;;;;;;4.43;2.20;;;8.10;99.90;;;;;;5071687;28;20153;-77
2022/04/15 03:39:39;;;;;;;3.40;1.85;;;8.10;99.90;;;;;;5077149;28;20059;-78
2022/04/15 03:42:07;;;;;;;3.33;2.28;;;8.10;99.90;;;;;;5075526;28;20036;-77
2022/04/15 03:44:32;;;;;;;2.88;1.65;;;8.10;99.90;;;;;;5090577;28;20063;-77
2022/04/15 03:46:58;;;;;;;4.22;1.75;;;8.10;99.90;;;;;;5073637;28;20064;-77
2022/04/15 03:49:23;;;;;;;5.45;1.70;;;8.10;99.90;;;;;;5057405;28;20493;-77
2022/04/15 03:51:49;;;;;;;3.47;1.52;;;8.10;99.90;;;;;;5087158;28;20159;-77
2022/04/15 03:54:15;;;;;;;3.00;1.92;;;8.10;99.90;;;;;;5077909;28;20036;-77
2022/04/15 03:56:40;;;;;;;3.40;1.63;;;8.20;99.90;;;;;;5078625;28;20047;-77
2022/04/15 03:59:06;;;;;;;3.65;1.75;;;8.10;99.90;;;;;;5078228;28;20036;-77
2022/04/15 04:01:31;;;;;;;3.88;2.30;;;8.20;99.90;;;;;;5058356;28;20653;-77
2022/04/15 04:03:57;;;;;;;7.43;2.00;;;8.10;99.90;;;;;;5080835;28;20467;-77
2022/04/15 04:06:22;;;;;;;3.47;2.15;;;8.20;99.90;;;;;;5064407;28;20159;-78
2022/04/15 04:08:51;;;;;;;4.43;1.38;;;8.20;99.90;;;;;;5058962;28;20048;-77
2022/04/15 04:11:17;;;;;;;2.97;1.92;;;8.20;99.90;;;;;;5065365;28;20040;-77
2022/04/15 04:13:43;;;;;;;6.30;1.88;;;8.20;99.90;;;;;;5061987;28;20051;-77
2022/04/15 04:16:09;;;;;;;3.80;1.65;;;8.20;99.90;;;;;;5064489;28;20484;-77
2022/04/15 04:18:34;;;;;;;5.03;2.80;;;8.20;99.90;;;;;;5096172;28;20089;-77
2022/04/15 04:21:00;;;;;;;2.97;1.92;;;8.20;99.90;;;;;;5078867;28;20048;-77
2022/04/15 04:23:26;;;;;;;3.35;1.92;;;8.20;99.90;;;;;;5059626;28;20036;-77
2022/04/15 04:25:51;;;;;;;2.97;1.65;;;8.20;99.90;;;;;;5074058;28;20039;-77
2022/04/15 04:28:17;;;;;;;3.78;2.00;;;8.20;99.90;;;;;;5072063;28;20117;-77
2022/04/15 04:30:42;;;;;;;4.53;1.92;;;8.20;99.90;;;;;;5078138;28;20047;-77
2022/04/15 04:33:08;;;;;;;4.05;2.15;;;8.20;99.90;;;;;;5062172;28;20031;-77
2022/04/15 04:35:34;;;;;;;3.47;1.88;;;8.10;99.90;;;;;;5056097;28;20048;-76
2022/04/15 04:37:59;;;;;;;4.03;2.35;;;8.10;99.90;;;;;;5060064;28;20036;-77
2022/04/15 04:40:25;;;;;;;4.13;2.10;;;8.10;99.90;;;;;;5060820;28;20028;-77
2022/04/15 04:42:51;;;;;;;4.28;2.25;;;8.00;99.90;;;;;;5076760;28;20028;-77
2022/04/15 04:45:18;;;;;;;2.78;1.40;;;8.00;99.90;;;;;;5079524;28;20082;-77
2022/04/15 04:47:45;;;;;;;3.63;1.73;;;8.00;99.90;;;;;;5058734;28;20458;-77
2022/04/15 04:50:11;;;;;;;2.35;1.33;;;8.00;99.90;;;;;;5109867;27;20134;-76
2022/04/15 04:52:38;;;;;;;2.33;1.50;;;7.90;99.90;;;;;;5092947;28;20033;-76
2022/04/15 04:55:05;;;;;;;2.40;1.42;;;7.90;99.90;;;;;;5079207;28;20036;-77
2022/04/15 04:57:31;;;;;;;3.00;1.80;;;7.90;99.90;;;;;;5058136;28;20054;-76
2022/04/15 04:59:56;;;;;;;2.67;1.50;;;7.90;99.90;;;;;;5078538;28;20165;-77
2022/04/15 05:02:23;;;;;;;3.53;1.52;;;7.90;99.90;;;;;;5061896;28;20578;-77
2022/04/15 05:04:48;;;;;;;3.83;2.15;;;7.80;99.90;;;;;;5059677;28;20449;-77
2022/04/15 05:07:14;;;;;;;4.82;2.45;;;7.90;99.90;;;;;;5076239;28;20572;-77
2022/04/15 05:09:43;;;;;;;3.65;1.70;;;7.90;99.90;;;;;;5079405;28;20481;-77
2022/04/15 05:12:12;;;;;;;3.10;1.88;;;7.90;99.90;;;;;;5062997;28;20086;-76
2022/04/15 05:14:37;;;;;;;2.50;1.50;;;7.90;99.90;;;;;;5078541;28;20101;-77
2022/04/15 05:17:04;;;;;;;3.38;1.80;;;7.90;99.90;;;;;;5077117;28;20443;-77
2022/04/15 05:19:29;;;;;;;2.67;1.73;;;7.90;99.90;;;;;;5090292;28;20067;-77
2022/04/15 05:21:55;;;;;;;3.00;1.65;;;7.90;99.90;;;;;;5078274;28;20032;-77
2022/04/15 05:24:21;;;;;;;2.35;1.40;;;7.90;99.90;;;;;;5073321;28;20141;-77
2022/04/15 05:26:46;;;;;;;8.30;1.77;;;7.90;99.90;;;;;;5074296;28;20143;-77
2022/04/15 05:29:12;;;;;;;1.90;1.40;;;7.90;99.90;;;;;;5076125;28;20040;-77
2022/04/15 05:31:37;;;;;;;3.28;1.90;;;7.90;99.90;;;;;;5078651;28;20055;-77
2022/04/15 05:34:03;;;;;;;3.17;1.27;;;7.90;99.90;;;;;;5075402;28;20028;-77
2022/04/15 05:36:29;;;;;;;3.13;1.85;;;7.90;99.90;;;;;;5077201;28;20122;-77
2022/04/15 05:38:55;;;;;;;3.28;1.20;;;7.90;99.90;;;;;;5079640;28;20040;-77
2022/04/15 05:41:21;;;;;;;2.15;1.40;;;7.90;99.90;;;;;;5077576;28;20802;-77
2022/04/15 05:43:46;;;;;;;2.50;1.65;;;7.90;99.90;;;;;;5062995;28;20561;-77
2022/04/15 05:46:12;;;;;;;1.83;1.05;;;7.90;99.90;;;;;;5075410;28;20043;-77
2022/04/15 05:48:38;;;;;;;2.65;1.27;;;7.80;99.90;;;;;;5059794;28;20045;-77
2022/04/15 05:51:04;;;;;;;2.92;1.13;;;7.80;99.90;;;;;;5075011;28;20043;-77
2022/04/15 05:53:30;;;;;;;1.80;1.20;;;7.80;99.90;;;;;;5072686;28;20040;-77
2022/04/15 05:55:59;;;;;;;2.47;1.45;;;7.80;99.90;;;;;;5074099;28;20048;-77
2022/04/15 05:58:28;;;;;;;2.35;1.25;;;7.80;99.90;;;;;;5057082;28;20122;-77
2022/04/15 06:00:55;;;;;;;3.47;1.77;;;7.80;99.90;;;;;;5074211;28;20058;-77
2022/04/15 06:03:20;;;;;;;4.28;1.00;;;7.80;99.90;;;;;;5080251;28;20028;-77
2022/04/15 06:05:47;;;;;;;1.92;1.10;;;7.80;99.90;;;;;;5072696;28;20072;-77
2022/04/15 06:08:13;;;;;;;2.75;1.45;;;7.80;99.90;;;;;;5110743;27;20054;-77
2022/04/15 06:10:39;;;;;;;2.03;0.85;;;7.80;99.90;;;;;;5110287;27;20040;-77
2022/04/15 06:13:08;;;;;;;1.80;1.23;;;7.80;99.90;;;;;;5076411;28;20053;-77
2022/04/15 06:15:36;;;;;;;2.08;1.35;;;7.80;99.90;;;;;;5075505;28;20040;-77
2022/04/15 06:18:02;;;;;;;2.95;1.33;;;7.80;99.90;;;;;;5075276;28;20039;-77
2022/04/15 06:20:29;;;;;;;1.73;0.93;;;7.80;99.90;;;;;;5091752;28;20028;-77
2022/04/15 06:22:55;;;;;;;2.28;1.08;;;7.80;99.90;;;;;;5076785;28;20072;-77
2022/04/15 06:25:21;;;;;;;2.28;1.45;;;7.80;99.90;;;;;;5092934;28;20052;-77
2022/04/15 06:27:47;;;;;;;2.15;1.30;;;7.80;99.90;;;;;;5077376;28;20028;-77
2022/04/15 06:30:13;;;;;;;3.03;2.03;;;7.80;99.90;;;;;;5075919;28;20036;-77
2022/04/15 06:32:39;;;;;;;2.53;1.45;;;7.80;99.90;;;;;;5075557;28;20032;-77
2022/04/15 06:35:06;;;;;;;3.08;1.60;;;7.80;99.90;;;;;;5074447;28;20096;-77
2022/04/15 06:37:31;;;;;;;4.20;1.63;;;7.80;99.90;;;;;;5079177;28;20466;-79
2022/04/15 06:39:57;;;;;;;4.20;1.48;;;7.80;99.90;;;;;;5076291;28;20040;-77
2022/04/15 06:42:24;;;;;;;4.22;1.70;;;7.80;99.90;;;;;;5111895;28;20450;-77
2022/04/15 06:44:50;;;;;;;2.97;1.65;;;7.80;99.90;;;;;;5077490;28;20047;-77
2022/04/15 06:47:16;;;;;;;2.72;2.05;;;7.70;99.90;;;;;;5108456;28;20135;-78
2022/04/15 06:49:42;;;;;;;2.63;1.45;;;7.80;99.90;;;;;;5060461;28;20462;-77
2022/04/15 06:52:09;;;;;;;5.40;2.08;;;7.80;99.90;;;;;;5077454;28;20447;-77
2022/04/15 06:54:34;;;;;;;3.58;1.77;;;7.80;99.90;;;;;;5111793;28;20036;-78
2022/04/15 06:57:00;;;;;;;2.97;1.77;;;7.80;99.90;;;;;;5075798;28;20102;-77
2022/04/15 06:59:26;;;;;;;3.17;1.48;;;7.90;99.90;;;;;;5078168;28;20060;-77
2022/04/15 07:01:51;;;;;;;3.67;2.28;;;7.90;99.90;;;;;;5078545;28;20036;-77
2022/04/15 07:04:17;;;;;;;4.53;2.00;;;7.90;99.90;;;;;;5075974;28;20024;-77
2022/04/15 07:06:43;;;;;;;3.53;2.20;;;7.90;99.90;;;;;;5056935;28;20449;-78
2022/04/15 07:09:09;;;;;;;4.38;1.90;;;7.90;99.90;;;;;;5073629;28;20079;-77
2022/04/15 07:11:34;;;;;;;4.93;2.47;;;8.00;99.90;;;;;;5056860;28;20036;-77
2022/04/15 07:14:00;;;;;;;3.40;1.65;;;8.00;99.90;;;;;;5073510;28;20059;-77
2022/04/15 07:16:26;;;;;;;4.18;2.28;;;8.00;99.90;;;;;;5070188;28;20109;-77
2022/04/15 07:18:56;;;;;;;4.18;2.13;;;8.00;99.90;;;;;;5075338;28;20040;-77
2022/04/15 07:21:22;;;;;;;5.50;2.25;;;8.00;99.90;;;;;;5072076;28;20044;-77
2022/04/15 07:23:48;;;;;;;3.75;1.63;;;8.00;99.90;;;;;;5052380;28;20032;-77
2022/04/15 07:26:14;;;;;;;3.38;2.15;;;8.10;99.90;;;;;;5083142;28;20088;-77
2022/04/15 07:28:39;;;;;;;5.72;2.78;;;8.10;99.90;;;;;;5081146;28;20343;-77
2022/04/15 07:31:05;;;;;;;8.40;2.10;;;8.10;99.90;;;;;;5076505;28;20039;-77
2022/04/15 07:33:31;;;;;;;5.43;2.58;;;8.10;99.90;;;;;;5099602;27;20040;-77
2022/04/15 07:35:56;;;;;;;6.75;3.38;;;8.20;99.90;;;;;;5081203;28;20028;-78
2022/04/15 07:38:22;;;;;;;4.72;2.55;;;8.10;99.90;;;;;;5109364;27;20032;-77
2022/04/15 07:40:49;;;;;;;6.85;2.55;;;8.20;99.90;;;;;;5084090;28;20060;-77
2022/04/15 07:43:15;;;;;;;3.55;2.42;;;8.20;99.90;;;;;;5081344;28;20044;-80
2022/04/15 07:45:40;;;;;;;6.35;2.67;;;8.20;99.90;;;;;;5059667;28;20036;-79
2022/04/15 07:48:06;;;;;;;5.95;3.47;;;8.20;99.90;;;;;;5063298;28;20051;-76
2022/04/15 07:50:32;;;;;;;6.53;2.92;;;8.20;99.90;;;;;;5078492;28;20044;-76
2022/04/15 07:52:59;;;;;;;5.28;2.85;;;8.20;99.90;;;;;;5078987;28;20051;-77
2022/04/15 07:55:26;;;;;;;6.28;2.83;;;8.20;99.90;;;;;;5105677;27;20044;-76
2022/04/15 07:57:51;;;;;;;11.32;3.53;;;8.30;99.90;;;;;;5077065;28;20111;-76
2022/04/15 08:00:18;;;;;;;4.35;2.63;;;8.30;99.90;;;;;;5112082;27;22726;-76
2022/04/15 08:02:43;;;;;;;7.00;3.35;;;8.30;99.90;;;;;;5076326;28;20044;-76
2022/04/15 08:05:09;;;;;;;4.82;2.13;;;8.30;99.90;;;;;;5058332;28;20519;-77
2022/04/15 08:07:35;;;;;;;6.60;3.40;;;8.40;99.90;;;;;;5076075;28;20039;-76
2022/04/15 08:10:02;;;;;;;5.30;2.38;;;8.40;99.90;;;;;;5073624;28;20046;-76
2022/04/15 08:12:28;;;;;;;4.88;2.80;;;8.40;99.90;;;;;;5081465;28;20101;-77
2022/04/15 08:14:53;;;;;;;6.20;2.65;;;8.40;99.90;;;;;;5074364;28;20048;-76
2022/04/15 08:17:19;;;;;;;4.60;2.33;;;8.40;99.90;;;;;;5106699;27;20540;-76
2022/04/15 08:19:45;;;;;;;4.57;2.78;;;8.40;99.90;;;;;;5064610;28;20482;-76
2022/04/15 08:22:11;;;;;;;5.88;2.72;;;8.50;99.90;;;;;;5073745;28;20568;-76
2022/04/15 08:24:42;;;;;;;6.35;2.85;;;8.50;99.90;;;;;;5059567;28;20156;-76
2022/04/15 08:27:08;;;;;;;4.38;2.35;;;8.50;99.90;;;;;;5072580;28;20047;-76
2022/04/15 08:29:35;;;;;;;5.57;2.90;;;8.60;99.90;;;;;;5072331;28;20047;-76
2022/04/15 08:32:01;;;;;;;4.50;2.65;;;8.60;99.90;;;;;;5089183;27;20113;-76
2022/04/15 08:34:26;;;;;;;5.78;2.53;;;8.60;99.90;;;;;;5077732;28;20165;-76
2022/04/15 08:36:52;;;;;;;3.50;2.13;;;8.70;99.90;;;;;;5104110;27;20043;-76
2022/04/15 08:39:17;;;;;;;4.85;2.88;;;8.70;99.90;;;;;;5076997;28;20040;-78
2022/04/15 08:41:43;;;;;;;3.20;1.75;;;8.70;99.90;;;;;;5059263;28;20050;-77
2022/04/15 08:44:09;;;;;;;4.53;2.67;;;8.80;99.90;;;;;;5074642;28;20050;-78
2022/04/15 08:46:36;;;;;;;5.13;2.30;;;8.80;99.90;;;;;;5069340;28;20044;-77
2022/04/15 08:49:02;;;;;;;3.60;2.53;;;8.80;99.90;;;;;;5078616;28;20127;-80
2022/04/15 08:51:29;;;;;;;4.63;2.22;;;8.80;99.90;;;;;;5055123;28;20036;-80
2022/04/15 08:53:56;;;;;;;4.47;2.72;;;8.90;99.90;;;;;;5078274;28;20040;-80
2022/04/15 08:56:25;;;;;;;6.10;2.60;;;8.80;99.90;;;;;;5072955;28;20159;-80
2022/04/15 08:58:50;;;;;;;5.47;2.20;;;8.90;99.90;;;;;;5106164;27;20040;-81
2022/04/15 09:01:16;;;;;;;5.80;2.10;;;8.80;99.90;;;;;;5073623;28;20410;-80
2022/04/15 09:03:42;;;;;;;6.53;3.08;;;8.90;99.90;;;;;;5076884;28;20040;-76
2022/04/15 09:06:15;;;;;;;5.65;2.00;;;8.90;99.90;;;;;;5072876;28;20048;-79
2022/04/15 09:09:09;;;;;;;3.40;2.00;;;8.90;99.90;;;;;;5106742;27;20032;-79
2022/04/15 09:11:37;;;;;;;5.38;1.98;;;8.90;99.90;;;;;;5069088;28;20039;-78
2022/04/15 09:14:15;;;;;;;5.80;2.03;;;8.90;99.90;;;;;;5055585;28;20460;-78
2022/04/15 09:16:43;;;;;;;5.03;2.20;;;9.00;99.90;;;;;;5082210;28;20045;-78
2022/04/15 09:19:10;;;;;;;3.70;2.00;;;9.00;99.90;;;;;;5102152;27;20048;-79
2022/04/15 09:21:38;;;;;;;6.13;2.42;;;9.10;99.90;;;;;;5102875;27;20052;-77
2022/04/15 09:24:03;;;;;;;5.30;1.88;;;9.10;99.90;;;;;;5084779;28;20036;-82
2022/04/15 09:26:29;;;;;;;3.55;1.88;;;9.20;99.90;;;;;;5102717;27;20054;-80
2022/04/15 09:28:55;;;;;;;3.95;1.85;;;9.20;99.90;;;;;;5074374;28;20045;-82
2022/04/15 09:31:23;;;;;;;2.55;1.52;;;9.30;99.90;;;;;;5055830;28;20035;-81
2022/04/15 09:33:52;;;;;;;3.88;1.70;;;9.30;99.90;;;;;;5086895;28;20062;-82
2022/04/15 09:36:25;;;;;;;4.20;1.70;;;9.40;99.90;;;;;;5104185;27;20046;-76
2022/04/15 09:38:56;;;;;;;5.22;1.90;;;9.40;99.90;;;;;;5106119;27;20032;-78
2022/04/15 09:41:23;;;;;;;3.15;1.60;;;9.40;99.90;;;;;;5070321;28;20481;-78
2022/04/15 09:43:52;;;;;;;2.55;1.65;;;9.50;99.90;;;;;;5102680;27;20059;-82
2022/04/15 09:46:19;;;;;;;3.78;1.98;;;9.50;99.90;;;;;;5051341;28;20407;-78
2022/04/15 09:49:02;;;;;;;3.45;1.52;;;9.60;99.90;;;;;;5105196;27;20078;-78
2022/04/15 09:51:30;;;;;;;4.10;2.08;;;9.60;99.90;;;;;;5088633;28;20527;-78
2022/04/15 09:54:01;;;;;;;2.97;1.40;;;9.60;99.90;;;;;;5108754;27;20419;-79
2022/04/15 09:56:26;;;;;;;3.05;1.85;;;9.70;99.90;;;;;;5105355;27;20036;-78
2022/04/15 09:58:54;;;;;;;2.90;1.80;;;9.70;99.90;;;;;;5070887;28;20045;-77
2022/04/15 10:01:24;;;;;;;3.63;1.77;;;9.80;99.90;;;;;;5102825;27;20040;-78
2022/04/15 10:03:51;;;;;;;3.25;1.60;;;9.90;99.90;;;;;;5067358;28;20039;-77
2022/04/15 10:06:17;;;;;;;4.18;2.10;;;10.00;99.90;;;;;;5083739;28;20036;-77
2022/04/15 10:08:43;;;;;;;3.20;1.77;;;10.00;99.90;;;;;;5075323;28;20235;-79
2022/04/15 10:11:09;;;;;;;3.25;1.95;;;10.00;99.90;;;;;;5066251;28;20067;-79
2022/04/15 10:13:36;;;;;;;5.65;2.30;;;10.00;99.90;;;;;;5072830;28;20141;-79
2022/04/15 10:16:02;;;;;;;2.95;1.67;;;10.00;99.90;;;;;;5069171;28;20458;-79
2022/04/15 10:18:29;;;;;;;3.03;1.70;;;10.10;99.90;;;;;;5070297;28;20373;-78
2022/04/15 10:20:58;;;;;;;2.58;1.85;;;10.10;99.90;;;;;;5099609;27;20049;-77
2022/04/15 10:23:25;;;;;;;3.80;2.30;;;10.10;99.90;;;;;;5054331;28;20113;-77
2022/04/15 10:25:51;;;;;;;2.88;1.65;;;10.10;99.90;;;;;;5080444;28;20093;-77
2022/04/15 10:28:20;;;;;;;3.95;1.98;;;10.10;99.90;;;;;;5111083;27;20048;-77
2022/04/15 10:31:03;;;;;;;2.92;1.65;;;10.10;99.90;;;;;;5108813;27;20050;-77
2022/04/15 10:33:31;;;;;;;5.57;2.15;;;10.10;99.90;;;;;;5055810;28;20085;-77
2022/04/15 10:36:20;;;;;;;5.03;1.85;;;10.20;99.90;;;;;;5092069;27;20210;-77
2022/04/15 10:39:06;;;;;;;4.22;2.30;;;10.20;99.90;;;;;;5077478;28;20148;-77
2022/04/15 10:41:41;;;;;;;3.78;2.00;;;10.20;99.90;;;;;;5090733;28;20496;-77
2022/04/15 10:44:11;;;;;;;3.63;2.13;;;10.30;99.90;;;;;;5073677;28;21532;-78
2022/04/15 10:46:37;;;;;;;5.05;2.72;;;10.30;99.90;;;;;;5101410;28;20290;-77
2022/04/15 10:49:21;;;;;;;9.20;2.35;;;10.30;99.90;;;;;;5053492;28;20119;-78
2022/04/15 10:51:50;;;;;;;4.07;2.15;;;10.30;99.90;;;;;;5088703;28;20083;-77
2022/04/15 10:54:35;;;;;;;7.65;2.70;;;10.30;99.90;;;;;;5059023;28;20063;-77
2022/04/15 10:57:11;;;;;;;5.53;2.58;;;10.40;99.90;;;;;;5069894;28;20044;-77
2022/04/15 11:02:22;;;;;;;4.05;2.00;;;10.40;99.90;;;;;;5107249;27;19971;-77
2022/04/15 11:04:52;;;;;;;4.15;2.38;;;10.40;99.90;;;;;;5077580;28;20513;-77
2022/04/15 11:07:46;;;;;;;3.72;1.98;;;10.40;99.90;;;;;;5076684;28;20035;-77
2022/04/15 11:10:18;;;;;;;5.35;2.13;;;10.40;99.90;;;;;;5090641;28;20258;-77
2022/04/15 11:12:44;;;;;;;5.10;2.00;;;10.40;99.90;;;;;;5079235;28;20602;-76
2022/04/15 11:15:11;;;;;;;4.15;2.50;;;10.40;99.90;;;;;;5109115;27;20135;-77
2022/04/15 11:17:45;;;;;;;5.80;2.72;;;10.40;99.90;;;;;;5093980;28;20586;-77
2022/04/15 11:20:11;;;;;;;6.30;2.30;;;10.40;99.90;;;;;;5073143;28;20113;-77
2022/04/15 11:22:41;;;;;;;4.70;2.67;;;10.40;99.90;;;;;;5061233;28;20473;-77
2022/04/15 11:25:09;;;;;;;3.75;2.20;;;10.50;99.90;;;;;;5076857;28;20048;-77
2022/04/15 11:27:41;;;;;;;4.53;2.47;;;10.50;99.90;;;;;;5092256;28;20076;-78
2022/04/15 11:30:16;;;;;;;3.65;2.17;;;10.50;99.90;;;;;;5055420;28;20141;-77
2022/04/15 11:32:51;;;;;;;4.75;2.53;;;10.40;99.90;;;;;;5093551;28;20044;-77
2022/04/15 11:35:27;;;;;;;4.70;2.25;;;10.50;99.90;;;;;;5065423;28;20087;-77
2022/04/15 11:38:05;;;;;;;3.80;2.17;;;10.50;99.90;;;;;;5110678;27;20047;-77
2022/04/15 11:40:34;;;;;;;4.47;2.13;;;10.50;99.90;;;;;;5075949;28;20521;-76
2022/04/15 11:43:01;;;;;;;3.78;2.15;;;10.40;99.90;;;;;;5073353;28;20050;-77
2022/04/15 11:45:43;;;;;;;4.03;2.30;;;10.40;99.90;;;;;;5104711;27;20047;-77
2022/04/15 11:48:15;;;;;;;4.68;2.25;;;10.40;99.90;;;;;;5080019;28;20054;-77
2022/04/15 11:50:42;;;;;;;3.38;2.20;;;10.40;99.90;;;;;;5060805;28;20036;-76
2022/04/15 11:53:07;;;;;;;4.43;2.38;;;10.40;99.90;;;;;;5077389;28;20040;-76
2022/04/15 11:55:53;;;;;;;5.40;2.88;;;10.40;99.90;;;;;;5076459;28;20031;-76
2022/04/15 11:58:21;;;;;;;4.28;2.17;;;10.40;99.90;;;;;;5080818;28;20032;-77
2022/04/15 12:00:51;;;;;;;3.70;1.80;;;10.40;99.90;;;;;;5079202;28;20107;-78
2022/04/15 12:03:18;;;;;;;4.78;2.38;;;10.40;99.90;;;;;;5098466;28;20477;-78
2022/04/15 12:05:43;;;;;;;4.72;2.38;;;10.40;99.90;;;;;;5078794;28;20394;-78
2022/04/15 12:08:09;;;;;;;3.85;2.25;;;10.50;99.90;;;;;;5083733;28;20036;-78
2022/04/15 12:10:41;;;;;;;4.80;2.17;;;10.40;99.90;;;;;;5072420;28;20046;-78
2022/04/15 12:13:07;;;;;;;5.65;2.53;;;10.50;99.90;;;;;;5059253;28;20443;-77
2022/04/15 12:15:33;;;;;;;4.88;2.13;;;10.50;99.90;;;;;;5060393;28;20040;-78
2022/04/15 12:18:03;;;;;;;5.80;2.30;;;10.40;99.90;;;;;;5075585;28;20040;-76
2022/04/15 12:20:29;;;;;;;3.40;1.90;;;10.40;99.90;;;;;;5081391;28;20389;-75
2022/04/15 12:22:59;;;;;;;3.63;2.40;;;10.40;99.90;;;;;;5112230;27;20032;-75
2022/04/15 12:25:25;;;;;;;7.32;2.67;;;10.40;99.90;;;;;;5078228;28;20118;-75
2022/04/15 12:27:53;;;;;;;4.30;2.42;;;10.40;99.90;;;;;;5077516;28;20460;-75
2022/04/15 12:30:39;;;;;;;4.68;2.45;;;10.40;99.90;;;;;;5078206;28;20578;-75
2022/04/15 12:33:10;;;;;;;3.00;2.22;;;10.40;99.90;;;;;;5077725;28;20051;-75
2022/04/15 12:35:56;;;;;;;4.32;2.30;;;10.30;99.90;;;;;;5079202;28;20039;-76
2022/04/15 12:38:22;;;;;;;4.40;2.40;;;10.30;99.90;;;;;;5044120;28;20040;-76
2022/04/15 12:40:48;;;;;;;5.68;2.70;;;10.30;99.90;;;;;;5073970;28;20040;-76
2022/04/15 12:43:13;;;;;;;4.57;2.30;;;10.30;99.90;;;;;;5082323;28;20036;-79
2022/04/15 12:45:54;;;;;;;6.95;2.50;;;10.30;99.90;;;;;;5074309;28;20095;-76
2022/04/15 12:48:21;;;;;;;3.15;1.90;;;10.30;99.90;;;;;;5095863;28;20421;-76
2022/04/15 12:50:52;;;;;;;3.17;1.90;;;10.30;99.90;;;;;;5061268;28;20054;-76
2022/04/15 12:53:20;;;;;;;4.78;3.22;;;10.20;99.90;;;;;;5108171;27;20040;-76
2022/04/15 12:55:47;;;;;;;3.33;2.40;;;10.20;99.90;;;;;;5066387;28;20033;-75
2022/04/15 12:58:19;;;;;;;5.07;2.42;;;10.20;99.90;;;;;;5107563;27;20358;-75
2022/04/15 13:00:44;;;;;;;5.43;2.42;;;10.20;99.90;;;;;;5107235;27;20044;-76